sensor_id;sensor_type;location;lat;lon;timestamp;P1;durP1;ratioP1;P2;durP2;ratioP2
64894;SDS011;51588;53.702;10.208;2023-09-07T00:01:18;3.70;;;3.33;;
64894;SDS011;51588;53.702;10.208;2023-09-07T00:03:45;3.50;;;3.20;;
64894;SDS011;51588;53.702;10.208;2023-09-07T00:06:11;3.97;;;3.60;;
64894;SDS011;51588;53.702;10.208;2023-09-07T00:08:38;3.80;;;3.50;;
64894;SDS011;51588;53.702;10.208;2023-09-07T00:11:04;4.10;;;3.80;;
64894;SDS011;51588;53.702;10.208;2023-09-07T00:13:32;4.00;;;3.70;;
64894;SDS011;51588;53.702;10.208;2023-09-07T00:15:59;3.60;;;3.30;;
64894;SDS011;51588;53.702;10.208;2023-09-07T00:18:26;3.70;;;3.40;;
64894;SDS011;51588;53.702;10.208;2023-09-07T00:20:52;4.17;;;3.83;;
64894;SDS011;51588;53.702;10.208;2023-09-07T00:23:19;3.83;;;3.53;;
64894;SDS011;51588;53.702;10.208;2023-09-07T00:25:46;3.60;;;3.20;;
64894;SDS011;51588;53.702;10.208;2023-09-07T00:28:12;3.63;;;3.33;;
64894;SDS011;51588;53.702;10.208;2023-09-07T00:30:40;3.10;;;2.90;;
64894;SDS011;51588;53.702;10.208;2023-09-07T00:33:07;3.77;;;3.47;;
64894;SDS011;51588;53.702;10.208;2023-09-07T00:35:33;3.73;;;3.43;;
64894;SDS011;51588;53.702;10.208;2023-09-07T00:37:59;3.30;;;3.10;;
64894;SDS011;51588;53.702;10.208;2023-09-07T00:40:26;4.27;;;3.73;;
64894;SDS011;51588;53.702;10.208;2023-09-07T00:42:53;3.50;;;3.20;;
64894;SDS011;51588;53.702;10.208;2023-09-07T00:45:19;3.93;;;3.27;;
64894;SDS011;51588;53.702;10.208;2023-09-07T00:47:47;4.00;;;3.33;;
64894;SDS011;51588;53.702;10.208;2023-09-07T00:50:13;3.90;;;3.60;;
64894;SDS011;51588;53.702;10.208;2023-09-07T00:52:42;3.63;;;3.33;;
64894;SDS011;51588;53.702;10.208;2023-09-07T00:55:08;3.53;;;3.23;;
64894;SDS011;51588;53.702;10.208;2023-09-07T00:57:35;3.60;;;3.30;;
64894;SDS011;51588;53.702;10.208;2023-09-07T01:00:05;3.30;;;3.10;;
64894;SDS011;51588;53.702;10.208;2023-09-07T01:02:32;3.80;;;3.30;;
64894;SDS011;51588;53.702;10.208;2023-09-07T01:05:00;3.80;;;3.50;;
64894;SDS011;51588;53.702;10.208;2023-09-07T01:07:29;3.83;;;3.53;;
64894;SDS011;51588;53.702;10.208;2023-09-07T01:09:59;3.47;;;3.17;;
64894;SDS011;51588;53.702;10.208;2023-09-07T01:12:26;3.90;;;3.30;;
64894;SDS011;51588;53.702;10.208;2023-09-07T01:14:52;3.50;;;3.20;;
64894;SDS011;51588;53.702;10.208;2023-09-07T01:17:19;3.90;;;3.50;;
64894;SDS011;51588;53.702;10.208;2023-09-07T01:19:46;3.93;;;3.57;;
64894;SDS011;51588;53.702;10.208;2023-09-07T01:22:16;3.40;;;3.10;;
64894;SDS011;51588;53.702;10.208;2023-09-07T01:24:42;3.50;;;3.20;;
64894;SDS011;51588;53.702;10.208;2023-09-07T01:27:09;3.50;;;3.20;;
64894;SDS011;51588;53.702;10.208;2023-09-07T01:29:38;3.80;;;3.47;;
64894;SDS011;51588;53.702;10.208;2023-09-07T01:32:05;3.90;;;3.60;;
64894;SDS011;51588;53.702;10.208;2023-09-07T01:34:31;3.87;;;3.57;;
64894;SDS011;51588;53.702;10.208;2023-09-07T01:36:58;3.80;;;3.23;;
64894;SDS011;51588;53.702;10.208;2023-09-07T01:39:26;3.93;;;3.60;;
64894;SDS011;51588;53.702;10.208;2023-09-07T01:41:52;3.80;;;3.50;;
64894;SDS011;51588;53.702;10.208;2023-09-07T01:44:19;3.60;;;3.30;;
64894;SDS011;51588;53.702;10.208;2023-09-07T01:46:45;3.23;;;3.03;;
64894;SDS011;51588;53.702;10.208;2023-09-07T01:49:12;3.43;;;3.17;;
64894;SDS011;51588;53.702;10.208;2023-09-07T01:51:38;4.30;;;3.60;;
64894;SDS011;51588;53.702;10.208;2023-09-07T01:54:04;3.50;;;3.20;;
64894;SDS011;51588;53.702;10.208;2023-09-07T01:56:33;3.90;;;3.60;;
64894;SDS011;51588;53.702;10.208;2023-09-07T01:58:59;4.00;;;3.60;;
64894;SDS011;51588;53.702;10.208;2023-09-07T02:01:26;3.83;;;3.53;;
64894;SDS011;51588;53.702;10.208;2023-09-07T02:03:54;3.63;;;3.33;;
64894;SDS011;51588;53.702;10.208;2023-09-07T02:06:21;4.00;;;3.70;;
64894;SDS011;51588;53.702;10.208;2023-09-07T02:08:47;3.27;;;3.07;;
64894;SDS011;51588;53.702;10.208;2023-09-07T02:11:14;3.47;;;3.20;;
64894;SDS011;51588;53.702;10.208;2023-09-07T02:13:42;3.90;;;3.50;;
64894;SDS011;51588;53.702;10.208;2023-09-07T02:16:08;3.90;;;3.60;;
64894;SDS011;51588;53.702;10.208;2023-09-07T02:18:35;3.23;;;2.93;;
64894;SDS011;51588;53.702;10.208;2023-09-07T02:21:01;3.53;;;3.23;;
64894;SDS011;51588;53.702;10.208;2023-09-07T02:23:28;3.60;;;3.30;;
64894;SDS011;51588;53.702;10.208;2023-09-07T02:25:55;3.63;;;3.33;;
64894;SDS011;51588;53.702;10.208;2023-09-07T02:28:21;3.63;;;3.33;;
64894;SDS011;51588;53.702;10.208;2023-09-07T02:30:49;3.57;;;3.23;;
64894;SDS011;51588;53.702;10.208;2023-09-07T02:33:15;3.63;;;3.33;;
64894;SDS011;51588;53.702;10.208;2023-09-07T02:35:42;3.57;;;3.27;;
64894;SDS011;51588;53.702;10.208;2023-09-07T02:38:08;3.77;;;3.47;;
64894;SDS011;51588;53.702;10.208;2023-09-07T02:40:39;3.70;;;3.40;;
64894;SDS011;51588;53.702;10.208;2023-09-07T02:43:06;3.60;;;3.30;;
64894;SDS011;51588;53.702;10.208;2023-09-07T02:45:32;3.87;;;3.57;;
64894;SDS011;51588;53.702;10.208;2023-09-07T02:48:00;3.50;;;3.20;;
64894;SDS011;51588;53.702;10.208;2023-09-07T02:50:26;3.83;;;3.53;;
64894;SDS011;51588;53.702;10.208;2023-09-07T02:52:54;3.90;;;3.40;;
64894;SDS011;51588;53.702;10.208;2023-09-07T02:55:20;5.30;;;3.40;;
64894;SDS011;51588;53.702;10.208;2023-09-07T02:57:47;3.80;;;3.50;;
64894;SDS011;51588;53.702;10.208;2023-09-07T03:00:13;3.83;;;3.50;;
64894;SDS011;51588;53.702;10.208;2023-09-07T03:02:42;3.77;;;3.47;;
64894;SDS011;51588;53.702;10.208;2023-09-07T03:05:10;3.57;;;3.27;;
64894;SDS011;51588;53.702;10.208;2023-09-07T03:07:36;3.70;;;3.40;;
64894;SDS011;51588;53.702;10.208;2023-09-07T03:10:04;4.10;;;3.70;;
64894;SDS011;51588;53.702;10.208;2023-09-07T03:12:31;4.07;;;3.67;;
64894;SDS011;51588;53.702;10.208;2023-09-07T03:14:57;3.50;;;3.20;;
64894;SDS011;51588;53.702;10.208;2023-09-07T03:17:23;3.77;;;3.47;;
64894;SDS011;51588;53.702;10.208;2023-09-07T03:19:50;4.00;;;3.60;;
64894;SDS011;51588;53.702;10.208;2023-09-07T03:22:18;3.37;;;3.07;;
64894;SDS011;51588;53.702;10.208;2023-09-07T03:24:45;3.50;;;3.20;;
64894;SDS011;51588;53.702;10.208;2023-09-07T03:27:11;3.60;;;3.30;;
64894;SDS011;51588;53.702;10.208;2023-09-07T03:29:37;3.80;;;3.50;;
64894;SDS011;51588;53.702;10.208;2023-09-07T03:32:04;4.07;;;3.40;;
64894;SDS011;51588;53.702;10.208;2023-09-07T03:34:31;3.90;;;3.53;;
64894;SDS011;51588;53.702;10.208;2023-09-07T03:36:57;3.77;;;3.47;;
64894;SDS011;51588;53.702;10.208;2023-09-07T03:39:25;3.67;;;3.37;;
64894;SDS011;51588;53.702;10.208;2023-09-07T03:41:51;4.30;;;3.90;;
64894;SDS011;51588;53.702;10.208;2023-09-07T03:44:18;3.43;;;3.23;;
64894;SDS011;51588;53.702;10.208;2023-09-07T03:46:44;3.70;;;3.40;;
64894;SDS011;51588;53.702;10.208;2023-09-07T03:49:11;4.10;;;3.67;;
64894;SDS011;51588;53.702;10.208;2023-09-07T03:51:37;4.30;;;3.90;;
64894;SDS011;51588;53.702;10.208;2023-09-07T03:54:03;4.03;;;3.43;;
64894;SDS011;51588;53.702;10.208;2023-09-07T03:56:31;3.93;;;3.57;;
64894;SDS011;51588;53.702;10.208;2023-09-07T03:58:57;3.83;;;3.50;;
64894;SDS011;51588;53.702;10.208;2023-09-07T04:01:24;4.30;;;3.90;;
64894;SDS011;51588;53.702;10.208;2023-09-07T04:03:50;3.90;;;3.60;;
64894;SDS011;51588;53.702;10.208;2023-09-07T04:06:17;4.10;;;3.70;;
64894;SDS011;51588;53.702;10.208;2023-09-07T04:08:44;3.83;;;3.53;;
64894;SDS011;51588;53.702;10.208;2023-09-07T04:11:10;3.60;;;3.30;;
64894;SDS011;51588;53.702;10.208;2023-09-07T04:13:38;6.20;;;3.67;;
64894;SDS011;51588;53.702;10.208;2023-09-07T04:16:04;4.10;;;3.70;;
64894;SDS011;51588;53.702;10.208;2023-09-07T04:18:31;3.90;;;3.60;;
64894;SDS011;51588;53.702;10.208;2023-09-07T04:21:04;3.60;;;3.30;;
64894;SDS011;51588;53.702;10.208;2023-09-07T04:23:30;3.60;;;3.30;;
64894;SDS011;51588;53.702;10.208;2023-09-07T04:26:03;4.30;;;3.90;;
64894;SDS011;51588;53.702;10.208;2023-09-07T04:28:29;3.87;;;3.57;;
64894;SDS011;51588;53.702;10.208;2023-09-07T04:30:57;3.90;;;3.60;;
64894;SDS011;51588;53.702;10.208;2023-09-07T04:33:23;4.00;;;3.70;;
64894;SDS011;51588;53.702;10.208;2023-09-07T04:35:49;3.60;;;3.30;;
64894;SDS011;51588;53.702;10.208;2023-09-07T04:38:16;3.63;;;3.33;;
64894;SDS011;51588;53.702;10.208;2023-09-07T04:40:42;3.73;;;3.43;;
64894;SDS011;51588;53.702;10.208;2023-09-07T04:43:08;3.60;;;3.30;;
64894;SDS011;51588;53.702;10.208;2023-09-07T04:45:35;3.50;;;3.20;;
64894;SDS011;51588;53.702;10.208;2023-09-07T04:48:03;3.80;;;3.47;;
64894;SDS011;51588;53.702;10.208;2023-09-07T04:50:29;4.60;;;3.60;;
64894;SDS011;51588;53.702;10.208;2023-09-07T04:52:56;3.90;;;3.60;;
64894;SDS011;51588;53.702;10.208;2023-09-07T04:55:22;3.77;;;3.47;;
64894;SDS011;51588;53.702;10.208;2023-09-07T04:57:48;3.80;;;3.40;;
64894;SDS011;51588;53.702;10.208;2023-09-07T05:00:15;3.87;;;3.53;;
64894;SDS011;51588;53.702;10.208;2023-09-07T05:02:42;3.20;;;3.00;;
64894;SDS011;51588;53.702;10.208;2023-09-07T05:05:09;11.83;;;5.70;;
64894;SDS011;51588;53.702;10.208;2023-09-07T05:07:36;16.13;;;6.90;;
64894;SDS011;51588;53.702;10.208;2023-09-07T05:10:02;15.70;;;7.60;;
64894;SDS011;51588;53.702;10.208;2023-09-07T05:12:29;13.90;;;7.30;;
64894;SDS011;51588;53.702;10.208;2023-09-07T05:14:55;15.70;;;7.27;;
64894;SDS011;51588;53.702;10.208;2023-09-07T05:17:21;17.83;;;6.90;;
64894;SDS011;51588;53.702;10.208;2023-09-07T05:19:48;19.37;;;7.90;;
64894;SDS011;51588;53.702;10.208;2023-09-07T05:22:16;13.20;;;6.80;;
64894;SDS011;51588;53.702;10.208;2023-09-07T05:24:42;14.87;;;6.47;;
64894;SDS011;51588;53.702;10.208;2023-09-07T05:27:11;15.10;;;6.37;;
64894;SDS011;51588;53.702;10.208;2023-09-07T05:29:37;11.67;;;6.67;;
64894;SDS011;51588;53.702;10.208;2023-09-07T05:32:05;7.67;;;5.77;;
64894;SDS011;51588;53.702;10.208;2023-09-07T05:34:31;11.23;;;6.17;;
64894;SDS011;51588;53.702;10.208;2023-09-07T05:36:58;9.70;;;5.87;;
64894;SDS011;51588;53.702;10.208;2023-09-07T05:39:25;7.37;;;5.70;;
64894;SDS011;51588;53.702;10.208;2023-09-07T05:41:52;9.63;;;5.10;;
64894;SDS011;51588;53.702;10.208;2023-09-07T05:44:18;8.10;;;5.27;;
64894;SDS011;51588;53.702;10.208;2023-09-07T05:46:44;10.13;;;5.30;;
64894;SDS011;51588;53.702;10.208;2023-09-07T05:49:12;8.07;;;5.23;;
64894;SDS011;51588;53.702;10.208;2023-09-07T05:51:39;7.87;;;4.93;;
64894;SDS011;51588;53.702;10.208;2023-09-07T05:54:05;9.33;;;5.00;;
64894;SDS011;51588;53.702;10.208;2023-09-07T05:56:33;6.37;;;4.67;;
64894;SDS011;51588;53.702;10.208;2023-09-07T05:58:59;6.23;;;4.77;;
64894;SDS011;51588;53.702;10.208;2023-09-07T06:01:26;9.77;;;5.40;;
64894;SDS011;51588;53.702;10.208;2023-09-07T06:03:52;5.73;;;4.93;;
64894;SDS011;51588;53.702;10.208;2023-09-07T06:06:19;8.70;;;6.03;;
64894;SDS011;51588;53.702;10.208;2023-09-07T06:08:46;5.60;;;5.07;;
64894;SDS011;51588;53.702;10.208;2023-09-07T06:11:12;5.97;;;5.00;;
64894;SDS011;51588;53.702;10.208;2023-09-07T06:13:40;6.10;;;4.60;;
64894;SDS011;51588;53.702;10.208;2023-09-07T06:16:06;5.97;;;5.00;;
64894;SDS011;51588;53.702;10.208;2023-09-07T06:18:33;5.80;;;5.10;;
64894;SDS011;51588;53.702;10.208;2023-09-07T06:20:59;7.13;;;5.80;;
64894;SDS011;51588;53.702;10.208;2023-09-07T06:23:25;6.50;;;5.30;;
64894;SDS011;51588;53.702;10.208;2023-09-07T06:25:52;6.83;;;4.90;;
64894;SDS011;51588;53.702;10.208;2023-09-07T06:28:18;6.60;;;5.90;;
64894;SDS011;51588;53.702;10.208;2023-09-07T06:30:46;7.30;;;5.63;;
64894;SDS011;51588;53.702;10.208;2023-09-07T06:33:12;7.33;;;5.87;;
64894;SDS011;51588;53.702;10.208;2023-09-07T06:35:39;6.33;;;5.20;;
64894;SDS011;51588;53.702;10.208;2023-09-07T06:38:05;7.07;;;5.77;;
64894;SDS011;51588;53.702;10.208;2023-09-07T06:40:31;8.30;;;5.33;;
64894;SDS011;51588;53.702;10.208;2023-09-07T06:42:58;8.07;;;5.47;;
64894;SDS011;51588;53.702;10.208;2023-09-07T06:45:25;7.80;;;5.70;;
64894;SDS011;51588;53.702;10.208;2023-09-07T06:47:53;6.90;;;5.83;;
64894;SDS011;51588;53.702;10.208;2023-09-07T06:50:20;8.00;;;6.17;;
64894;SDS011;51588;53.702;10.208;2023-09-07T06:52:46;5.60;;;5.10;;
64894;SDS011;51588;53.702;10.208;2023-09-07T06:55:12;6.27;;;5.67;;
64894;SDS011;51588;53.702;10.208;2023-09-07T06:57:39;9.43;;;5.80;;
64894;SDS011;51588;53.702;10.208;2023-09-07T07:00:06;7.03;;;5.97;;
64894;SDS011;51588;53.702;10.208;2023-09-07T07:02:32;6.17;;;5.57;;
64894;SDS011;51588;53.702;10.208;2023-09-07T07:05:00;5.50;;;5.00;;
64894;SDS011;51588;53.702;10.208;2023-09-07T07:07:28;8.40;;;5.60;;
64894;SDS011;51588;53.702;10.208;2023-09-07T07:09:55;6.60;;;5.63;;
64894;SDS011;51588;53.702;10.208;2023-09-07T07:12:21;5.50;;;5.00;;
64894;SDS011;51588;53.702;10.208;2023-09-07T07:14:48;5.17;;;4.77;;
64894;SDS011;51588;53.702;10.208;2023-09-07T07:17:14;5.40;;;4.90;;
64894;SDS011;51588;53.702;10.208;2023-09-07T07:19:40;5.97;;;5.00;;
64894;SDS011;51588;53.702;10.208;2023-09-07T07:22:09;6.30;;;5.70;;
64894;SDS011;51588;53.702;10.208;2023-09-07T07:24:35;9.07;;;5.00;;
64894;SDS011;51588;53.702;10.208;2023-09-07T07:27:02;8.30;;;5.60;;
64894;SDS011;51588;53.702;10.208;2023-09-07T07:29:28;9.10;;;5.83;;
64894;SDS011;51588;53.702;10.208;2023-09-07T07:31:55;10.73;;;5.70;;
64894;SDS011;51588;53.702;10.208;2023-09-07T07:34:21;7.63;;;5.17;;
64894;SDS011;51588;53.702;10.208;2023-09-07T07:36:47;5.30;;;4.80;;
64894;SDS011;51588;53.702;10.208;2023-09-07T07:39:15;6.23;;;4.80;;
64894;SDS011;51588;53.702;10.208;2023-09-07T07:41:42;6.67;;;5.23;;
64894;SDS011;51588;53.702;10.208;2023-09-07T07:44:10;8.57;;;5.20;;
64894;SDS011;51588;53.702;10.208;2023-09-07T07:46:38;5.13;;;4.67;;
64894;SDS011;51588;53.702;10.208;2023-09-07T07:49:04;7.83;;;5.07;;
64894;SDS011;51588;53.702;10.208;2023-09-07T07:51:30;6.17;;;5.50;;
64894;SDS011;51588;53.702;10.208;2023-09-07T07:53:57;6.90;;;6.20;;
64894;SDS011;51588;53.702;10.208;2023-09-07T07:56:24;8.17;;;6.17;;
64894;SDS011;51588;53.702;10.208;2023-09-07T07:58:51;11.57;;;6.07;;
64894;SDS011;51588;53.702;10.208;2023-09-07T08:01:18;7.53;;;6.07;;
64894;SDS011;51588;53.702;10.208;2023-09-07T08:03:45;7.37;;;5.90;;
64894;SDS011;51588;53.702;10.208;2023-09-07T08:06:11;6.53;;;5.40;;
64894;SDS011;51588;53.702;10.208;2023-09-07T08:08:38;7.60;;;5.30;;
64894;SDS011;51588;53.702;10.208;2023-09-07T08:11:05;6.43;;;5.80;;
64894;SDS011;51588;53.702;10.208;2023-09-07T08:13:33;8.83;;;5.73;;
64894;SDS011;51588;53.702;10.208;2023-09-07T08:16:00;7.20;;;5.67;;
64894;SDS011;51588;53.702;10.208;2023-09-07T08:18:26;8.43;;;5.30;;
64894;SDS011;51588;53.702;10.208;2023-09-07T08:20:53;6.23;;;5.63;;
64894;SDS011;51588;53.702;10.208;2023-09-07T08:23:20;5.47;;;4.97;;
64894;SDS011;51588;53.702;10.208;2023-09-07T08:25:47;5.73;;;5.23;;
64894;SDS011;51588;53.702;10.208;2023-09-07T08:28:13;6.03;;;5.50;;
64894;SDS011;51588;53.702;10.208;2023-09-07T08:30:42;6.80;;;5.27;;
64894;SDS011;51588;53.702;10.208;2023-09-07T08:33:08;6.20;;;5.70;;
64894;SDS011;51588;53.702;10.208;2023-09-07T08:35:35;8.60;;;6.17;;
64894;SDS011;51588;53.702;10.208;2023-09-07T08:38:09;7.93;;;6.07;;
64894;SDS011;51588;53.702;10.208;2023-09-07T08:40:35;6.90;;;5.33;;
64894;SDS011;51588;53.702;10.208;2023-09-07T08:43:05;7.20;;;5.30;;
64894;SDS011;51588;53.702;10.208;2023-09-07T08:45:35;7.10;;;6.17;;
64894;SDS011;51588;53.702;10.208;2023-09-07T08:48:06;12.27;;;6.00;;
64894;SDS011;51588;53.702;10.208;2023-09-07T08:50:34;6.20;;;5.60;;
64894;SDS011;51588;53.702;10.208;2023-09-07T08:53:03;6.50;;;5.87;;
64894;SDS011;51588;53.702;10.208;2023-09-07T08:55:29;6.60;;;6.00;;
64894;SDS011;51588;53.702;10.208;2023-09-07T08:57:56;6.73;;;5.60;;
64894;SDS011;51588;53.702;10.208;2023-09-07T09:00:23;6.83;;;5.87;;
64894;SDS011;51588;53.702;10.208;2023-09-07T09:02:49;6.70;;;6.00;;
64894;SDS011;51588;53.702;10.208;2023-09-07T09:05:17;8.07;;;6.53;;
64894;SDS011;51588;53.702;10.208;2023-09-07T09:07:45;8.60;;;6.00;;
64894;SDS011;51588;53.702;10.208;2023-09-07T09:10:11;6.37;;;5.77;;
64894;SDS011;51588;53.702;10.208;2023-09-07T09:12:44;7.63;;;6.13;;
64894;SDS011;51588;53.702;10.208;2023-09-07T09:15:10;7.03;;;6.00;;
64894;SDS011;51588;53.702;10.208;2023-09-07T09:17:37;7.80;;;5.80;;
64894;SDS011;51588;53.702;10.208;2023-09-07T09:20:04;6.30;;;5.60;;
64894;SDS011;51588;53.702;10.208;2023-09-07T09:22:32;10.67;;;5.97;;
64894;SDS011;51588;53.702;10.208;2023-09-07T09:25:02;6.43;;;5.87;;
64894;SDS011;51588;53.702;10.208;2023-09-07T09:27:29;6.50;;;5.90;;
64894;SDS011;51588;53.702;10.208;2023-09-07T09:29:56;6.70;;;6.03;;
64894;SDS011;51588;53.702;10.208;2023-09-07T09:32:23;6.23;;;5.60;;
64894;SDS011;51588;53.702;10.208;2023-09-07T09:34:50;6.63;;;6.00;;
64894;SDS011;51588;53.702;10.208;2023-09-07T09:37:16;6.90;;;6.20;;
64894;SDS011;51588;53.702;10.208;2023-09-07T09:39:45;6.07;;;5.33;;
64894;SDS011;51588;53.702;10.208;2023-09-07T09:42:15;7.77;;;5.90;;
64894;SDS011;51588;53.702;10.208;2023-09-07T09:44:42;6.57;;;5.67;;
64894;SDS011;51588;53.702;10.208;2023-09-07T09:47:09;5.80;;;5.20;;
64894;SDS011;51588;53.702;10.208;2023-09-07T09:49:36;6.30;;;5.70;;
64894;SDS011;51588;53.702;10.208;2023-09-07T09:52:04;6.00;;;5.50;;
64894;SDS011;51588;53.702;10.208;2023-09-07T09:54:31;9.00;;;5.70;;
64894;SDS011;51588;53.702;10.208;2023-09-07T09:57:01;5.90;;;5.40;;
64894;SDS011;51588;53.702;10.208;2023-09-07T09:59:27;5.63;;;5.13;;
64894;SDS011;51588;53.702;10.208;2023-09-07T10:01:54;6.07;;;5.47;;
64894;SDS011;51588;53.702;10.208;2023-09-07T10:04:22;6.90;;;6.20;;
64894;SDS011;51588;53.702;10.208;2023-09-07T10:06:55;7.90;;;5.80;;
64894;SDS011;51588;53.702;10.208;2023-09-07T10:09:22;6.67;;;6.00;;
64894;SDS011;51588;53.702;10.208;2023-09-07T10:11:52;6.87;;;6.00;;
64894;SDS011;51588;53.702;10.208;2023-09-07T10:14:20;8.10;;;6.53;;
64894;SDS011;51588;53.702;10.208;2023-09-07T10:16:47;7.03;;;5.23;;
64894;SDS011;51588;53.702;10.208;2023-09-07T10:19:15;6.70;;;5.53;;
64894;SDS011;51588;53.702;10.208;2023-09-07T10:21:41;7.10;;;6.13;;
64894;SDS011;51588;53.702;10.208;2023-09-07T10:24:08;7.90;;;5.90;;
64894;SDS011;51588;53.702;10.208;2023-09-07T10:26:35;6.63;;;5.53;;
64894;SDS011;51588;53.702;10.208;2023-09-07T10:29:01;7.03;;;5.40;;
64894;SDS011;51588;53.702;10.208;2023-09-07T10:31:31;9.43;;;5.63;;
64894;SDS011;51588;53.702;10.208;2023-09-07T10:34:07;6.30;;;5.50;;
64894;SDS011;51588;53.702;10.208;2023-09-07T10:36:33;6.70;;;6.00;;
64894;SDS011;51588;53.702;10.208;2023-09-07T10:39:00;6.03;;;5.43;;
64894;SDS011;51588;53.702;10.208;2023-09-07T10:41:26;7.13;;;5.97;;
64894;SDS011;51588;53.702;10.208;2023-09-07T10:43:53;6.67;;;5.90;;
64894;SDS011;51588;53.702;10.208;2023-09-07T10:46:20;6.40;;;5.10;;
64894;SDS011;51588;53.702;10.208;2023-09-07T10:48:49;6.47;;;5.40;;
64894;SDS011;51588;53.702;10.208;2023-09-07T10:51:17;9.50;;;5.90;;
64894;SDS011;51588;53.702;10.208;2023-09-07T10:53:43;9.30;;;6.20;;
64894;SDS011;51588;53.702;10.208;2023-09-07T10:56:09;15.60;;;7.47;;
64894;SDS011;51588;53.702;10.208;2023-09-07T10:58:36;14.70;;;8.13;;
64894;SDS011;51588;53.702;10.208;2023-09-07T11:01:04;18.20;;;7.37;;
64894;SDS011;51588;53.702;10.208;2023-09-07T11:03:31;7.50;;;6.13;;
64894;SDS011;51588;53.702;10.208;2023-09-07T11:06:01;9.60;;;6.43;;
64894;SDS011;51588;53.702;10.208;2023-09-07T11:08:29;8.27;;;6.30;;
64894;SDS011;51588;53.702;10.208;2023-09-07T11:10:56;8.70;;;5.87;;
64894;SDS011;51588;53.702;10.208;2023-09-07T11:13:22;6.23;;;5.00;;
64894;SDS011;51588;53.702;10.208;2023-09-07T11:15:49;8.73;;;5.40;;
64894;SDS011;51588;53.702;10.208;2023-09-07T11:18:19;8.57;;;5.40;;
64894;SDS011;51588;53.702;10.208;2023-09-07T11:20:45;7.63;;;5.33;;
64894;SDS011;51588;53.702;10.208;2023-09-07T11:23:13;8.70;;;5.47;;
64894;SDS011;51588;53.702;10.208;2023-09-07T11:25:39;14.63;;;5.93;;
64894;SDS011;51588;53.702;10.208;2023-09-07T11:28:07;9.17;;;5.50;;
64894;SDS011;51588;53.702;10.208;2023-09-07T11:30:33;9.50;;;6.43;;
64894;SDS011;51588;53.702;10.208;2023-09-07T11:33:00;8.40;;;5.03;;
64894;SDS011;51588;53.702;10.208;2023-09-07T11:35:27;6.43;;;5.20;;
64894;SDS011;51588;53.702;10.208;2023-09-07T11:37:53;6.80;;;5.17;;
64894;SDS011;51588;53.702;10.208;2023-09-07T11:40:21;5.20;;;4.30;;
64894;SDS011;51588;53.702;10.208;2023-09-07T11:42:47;10.27;;;5.63;;
64894;SDS011;51588;53.702;10.208;2023-09-07T11:45:14;7.73;;;4.90;;
64894;SDS011;51588;53.702;10.208;2023-09-07T11:47:40;8.53;;;5.17;;
64894;SDS011;51588;53.702;10.208;2023-09-07T11:50:07;5.87;;;5.10;;
64894;SDS011;51588;53.702;10.208;2023-09-07T11:52:33;8.10;;;5.07;;
64894;SDS011;51588;53.702;10.208;2023-09-07T11:55:00;6.60;;;4.80;;
64894;SDS011;51588;53.702;10.208;2023-09-07T11:57:29;5.30;;;4.20;;
64894;SDS011;51588;53.702;10.208;2023-09-07T11:59:56;5.97;;;5.00;;
64894;SDS011;51588;53.702;10.208;2023-09-07T12:02:23;7.30;;;5.47;;
64894;SDS011;51588;53.702;10.208;2023-09-07T12:04:49;5.70;;;4.77;;
64894;SDS011;51588;53.702;10.208;2023-09-07T12:07:15;5.70;;;4.90;;
64894;SDS011;51588;53.702;10.208;2023-09-07T12:09:42;8.40;;;4.70;;
64894;SDS011;51588;53.702;10.208;2023-09-07T12:12:08;8.33;;;4.80;;
64894;SDS011;51588;53.702;10.208;2023-09-07T12:14:37;7.60;;;4.47;;
64894;SDS011;51588;53.702;10.208;2023-09-07T12:17:03;8.40;;;4.47;;
64894;SDS011;51588;53.702;10.208;2023-09-07T12:19:30;8.37;;;5.10;;
64894;SDS011;51588;53.702;10.208;2023-09-07T12:21:56;6.60;;;5.13;;
64894;SDS011;51588;53.702;10.208;2023-09-07T12:24:22;6.63;;;5.37;;
64894;SDS011;51588;53.702;10.208;2023-09-07T12:26:49;5.77;;;4.33;;
64894;SDS011;51588;53.702;10.208;2023-09-07T12:29:15;22.83;;;6.10;;
64894;SDS011;51588;53.702;10.208;2023-09-07T12:31:43;14.33;;;6.13;;
64894;SDS011;51588;53.702;10.208;2023-09-07T12:34:10;10.83;;;5.50;;
64894;SDS011;51588;53.702;10.208;2023-09-07T12:36:36;6.40;;;5.40;;
64894;SDS011;51588;53.702;10.208;2023-09-07T12:39:03;10.17;;;5.47;;
64894;SDS011;51588;53.702;10.208;2023-09-07T12:41:30;6.63;;;4.50;;
64894;SDS011;51588;53.702;10.208;2023-09-07T12:43:56;5.97;;;5.10;;
64894;SDS011;51588;53.702;10.208;2023-09-07T12:46:23;6.40;;;5.10;;
64894;SDS011;51588;53.702;10.208;2023-09-07T12:48:51;6.83;;;4.97;;
64894;SDS011;51588;53.702;10.208;2023-09-07T12:51:17;9.13;;;4.73;;
64894;SDS011;51588;53.702;10.208;2023-09-07T12:53:43;8.80;;;5.10;;
64894;SDS011;51588;53.702;10.208;2023-09-07T12:56:10;8.10;;;5.30;;
64894;SDS011;51588;53.702;10.208;2023-09-07T12:58:36;7.53;;;4.77;;
64894;SDS011;51588;53.702;10.208;2023-09-07T13:01:03;5.70;;;5.03;;
64894;SDS011;51588;53.702;10.208;2023-09-07T13:03:29;6.53;;;5.00;;
64894;SDS011;51588;53.702;10.208;2023-09-07T13:05:57;6.17;;;4.90;;
64894;SDS011;51588;53.702;10.208;2023-09-07T13:08:23;5.70;;;5.20;;
64894;SDS011;51588;53.702;10.208;2023-09-07T13:10:49;7.00;;;4.80;;
64894;SDS011;51588;53.702;10.208;2023-09-07T13:13:16;6.80;;;5.57;;
64894;SDS011;51588;53.702;10.208;2023-09-07T13:15:42;5.37;;;4.87;;
64894;SDS011;51588;53.702;10.208;2023-09-07T13:18:09;10.10;;;5.73;;
64894;SDS011;51588;53.702;10.208;2023-09-07T13:20:35;5.73;;;4.90;;
64894;SDS011;51588;53.702;10.208;2023-09-07T13:23:03;7.10;;;5.57;;
64894;SDS011;51588;53.702;10.208;2023-09-07T13:25:29;6.80;;;5.53;;
64894;SDS011;51588;53.702;10.208;2023-09-07T13:27:56;7.83;;;4.63;;
64894;SDS011;51588;53.702;10.208;2023-09-07T13:30:22;6.00;;;4.77;;
64894;SDS011;51588;53.702;10.208;2023-09-07T13:32:49;9.13;;;5.00;;
64894;SDS011;51588;53.702;10.208;2023-09-07T13:35:15;6.30;;;4.60;;
64894;SDS011;51588;53.702;10.208;2023-09-07T13:37:42;5.17;;;4.23;;
64894;SDS011;51588;53.702;10.208;2023-09-07T13:40:10;7.80;;;3.90;;
64894;SDS011;51588;53.702;10.208;2023-09-07T13:42:36;7.60;;;5.20;;
64894;SDS011;51588;53.702;10.208;2023-09-07T13:45:04;4.93;;;4.53;;
64894;SDS011;51588;53.702;10.208;2023-09-07T13:47:31;6.83;;;4.93;;
64894;SDS011;51588;53.702;10.208;2023-09-07T13:49:57;5.37;;;4.70;;
64894;SDS011;51588;53.702;10.208;2023-09-07T13:52:23;4.83;;;4.37;;
64894;SDS011;51588;53.702;10.208;2023-09-07T13:54:51;5.37;;;4.40;;
64894;SDS011;51588;53.702;10.208;2023-09-07T13:57:18;5.80;;;4.70;;
64894;SDS011;51588;53.702;10.208;2023-09-07T13:59:45;10.03;;;4.37;;
64894;SDS011;51588;53.702;10.208;2023-09-07T14:02:11;5.00;;;4.30;;
64894;SDS011;51588;53.702;10.208;2023-09-07T14:04:37;5.17;;;4.67;;
64894;SDS011;51588;53.702;10.208;2023-09-07T14:07:04;6.00;;;4.33;;
64894;SDS011;51588;53.702;10.208;2023-09-07T14:09:30;7.43;;;4.10;;
64894;SDS011;51588;53.702;10.208;2023-09-07T14:11:57;6.03;;;4.07;;
64894;SDS011;51588;53.702;10.208;2023-09-07T14:14:24;4.70;;;4.27;;
64894;SDS011;51588;53.702;10.208;2023-09-07T14:16:51;6.77;;;4.00;;
64894;SDS011;51588;53.702;10.208;2023-09-07T14:19:21;5.63;;;4.27;;
64894;SDS011;51588;53.702;10.208;2023-09-07T14:21:48;5.37;;;4.23;;
64894;SDS011;51588;53.702;10.208;2023-09-07T14:24:14;6.37;;;4.70;;
64894;SDS011;51588;53.702;10.208;2023-09-07T14:26:40;4.73;;;4.20;;
64894;SDS011;51588;53.702;10.208;2023-09-07T14:29:07;6.60;;;4.33;;
64894;SDS011;51588;53.702;10.208;2023-09-07T14:31:34;10.23;;;4.50;;